sensor_id;sensor_type;location;lat;lon;timestamp;P1;durP1;ratioP1;P2;durP2;ratioP2
21036;SDS011;10677;50.942;4.028;2023-03-14T00:01:52;7.78;;;1.10;;
21036;SDS011;10677;50.942;4.028;2023-03-14T00:04:17;6.57;;;1.30;;
21036;SDS011;10677;50.942;4.028;2023-03-14T00:06:43;5.57;;;1.30;;
21036;SDS011;10677;50.942;4.028;2023-03-14T00:09:09;7.75;;;1.20;;
21036;SDS011;10677;50.942;4.028;2023-03-14T00:11:35;9.95;;;1.65;;
21036;SDS011;10677;50.942;4.028;2023-03-14T00:14:00;9.57;;;1.25;;
21036;SDS011;10677;50.942;4.028;2023-03-14T00:16:26;7.40;;;1.60;;
21036;SDS011;10677;50.942;4.028;2023-03-14T00:18:52;9.68;;;1.30;;
21036;SDS011;10677;50.942;4.028;2023-03-14T00:21:17;10.88;;;1.60;;
21036;SDS011;10677;50.942;4.028;2023-03-14T00:23:43;10.88;;;1.60;;
21036;SDS011;10677;50.942;4.028;2023-03-14T00:26:13;7.47;;;1.63;;
21036;SDS011;10677;50.942;4.028;2023-03-14T00:28:41;10.30;;;1.75;;
21036;SDS011;10677;50.942;4.028;2023-03-14T00:31:08;7.93;;;1.50;;
21036;SDS011;10677;50.942;4.028;2023-03-14T00:33:36;8.80;;;1.45;;
21036;SDS011;10677;50.942;4.028;2023-03-14T00:36:03;7.68;;;1.95;;
21036;SDS011;10677;50.942;4.028;2023-03-14T00:38:37;8.07;;;1.25;;
21036;SDS011;10677;50.942;4.028;2023-03-14T00:41:07;16.92;;;1.70;;
21036;SDS011;10677;50.942;4.028;2023-03-14T00:43:35;8.68;;;1.42;;
21036;SDS011;10677;50.942;4.028;2023-03-14T00:46:02;7.32;;;1.80;;
21036;SDS011;10677;50.942;4.028;2023-03-14T00:48:28;9.02;;;1.75;;
21036;SDS011;10677;50.942;4.028;2023-03-14T00:50:54;7.82;;;1.85;;
21036;SDS011;10677;50.942;4.028;2023-03-14T00:53:19;6.22;;;1.30;;
21036;SDS011;10677;50.942;4.028;2023-03-14T00:55:45;10.45;;;1.98;;
21036;SDS011;10677;50.942;4.028;2023-03-14T00:58:12;10.77;;;1.98;;
21036;SDS011;10677;50.942;4.028;2023-03-14T01:00:39;11.65;;;1.83;;
21036;SDS011;10677;50.942;4.028;2023-03-14T01:03:05;7.82;;;1.42;;
21036;SDS011;10677;50.942;4.028;2023-03-14T01:05:32;7.32;;;1.55;;
21036;SDS011;10677;50.942;4.028;2023-03-14T01:08:01;10.20;;;1.48;;
21036;SDS011;10677;50.942;4.028;2023-03-14T01:10:27;9.82;;;1.85;;
21036;SDS011;10677;50.942;4.028;2023-03-14T01:12:53;9.10;;;1.63;;
21036;SDS011;10677;50.942;4.028;2023-03-14T01:15:18;12.07;;;1.67;;
21036;SDS011;10677;50.942;4.028;2023-03-14T01:17:44;13.93;;;2.08;;
21036;SDS011;10677;50.942;4.028;2023-03-14T01:20:11;10.27;;;1.88;;
21036;SDS011;10677;50.942;4.028;2023-03-14T01:22:39;10.85;;;1.52;;
21036;SDS011;10677;50.942;4.028;2023-03-14T01:25:05;12.52;;;2.17;;
21036;SDS011;10677;50.942;4.028;2023-03-14T01:27:32;9.23;;;1.80;;
21036;SDS011;10677;50.942;4.028;2023-03-14T01:29:58;10.93;;;1.75;;
21036;SDS011;10677;50.942;4.028;2023-03-14T01:32:24;9.88;;;1.70;;
21036;SDS011;10677;50.942;4.028;2023-03-14T01:34:50;9.75;;;1.70;;
21036;SDS011;10677;50.942;4.028;2023-03-14T01:37:16;11.85;;;2.15;;
21036;SDS011;10677;50.942;4.028;2023-03-14T01:39:42;12.05;;;2.10;;
21036;SDS011;10677;50.942;4.028;2023-03-14T01:42:08;11.00;;;1.90;;
21036;SDS011;10677;50.942;4.028;2023-03-14T01:47:50;8.07;;;1.48;;
21036;SDS011;10677;50.942;4.028;2023-03-14T01:50:16;5.95;;;1.23;;
21036;SDS011;10677;50.942;4.028;2023-03-14T01:52:43;7.50;;;1.35;;
21036;SDS011;10677;50.942;4.028;2023-03-14T01:55:14;8.77;;;1.40;;
21036;SDS011;10677;50.942;4.028;2023-03-14T01:57:44;8.77;;;1.55;;
21036;SDS011;10677;50.942;4.028;2023-03-14T02:00:14;7.95;;;1.40;;
21036;SDS011;10677;50.942;4.028;2023-03-14T02:02:44;5.47;;;1.15;;
21036;SDS011;10677;50.942;4.028;2023-03-14T02:05:12;8.52;;;1.40;;
21036;SDS011;10677;50.942;4.028;2023-03-14T02:10:09;8.75;;;1.60;;
21036;SDS011;10677;50.942;4.028;2023-03-14T02:12:35;8.85;;;1.60;;
21036;SDS011;10677;50.942;4.028;2023-03-14T02:15:02;8.50;;;1.30;;
21036;SDS011;10677;50.942;4.028;2023-03-14T02:17:28;6.38;;;0.88;;
21036;SDS011;10677;50.942;4.028;2023-03-14T02:22:26;5.85;;;1.35;;
21036;SDS011;10677;50.942;4.028;2023-03-14T02:24:58;4.82;;;0.60;;
21036;SDS011;10677;50.942;4.028;2023-03-14T02:27:40;4.30;;;0.95;;
21036;SDS011;10677;50.942;4.028;2023-03-14T02:30:10;4.80;;;0.75;;
21036;SDS011;10677;50.942;4.028;2023-03-14T02:32:39;9.02;;;1.25;;
21036;SDS011;10677;50.942;4.028;2023-03-14T02:35:09;8.32;;;1.50;;
21036;SDS011;10677;50.942;4.028;2023-03-14T02:38:13;7.03;;;1.63;;
21036;SDS011;10677;50.942;4.028;2023-03-14T02:40:35;5.88;;;1.27;;
21036;SDS011;10677;50.942;4.028;2023-03-14T02:43:01;12.27;;;1.65;;
21036;SDS011;10677;50.942;4.028;2023-03-14T02:45:37;10.13;;;1.85;;
21036;SDS011;10677;50.942;4.028;2023-03-14T02:48:07;9.18;;;1.90;;
21036;SDS011;10677;50.942;4.028;2023-03-14T02:50:38;8.88;;;1.90;;
21036;SDS011;10677;50.942;4.028;2023-03-14T02:55:39;10.55;;;2.00;;
21036;SDS011;10677;50.942;4.028;2023-03-14T02:58:09;9.23;;;2.60;;
21036;SDS011;10677;50.942;4.028;2023-03-14T03:00:34;11.25;;;2.17;;
21036;SDS011;10677;50.942;4.028;2023-03-14T03:03:00;12.25;;;2.35;;
21036;SDS011;10677;50.942;4.028;2023-03-14T03:05:26;14.32;;;2.67;;
21036;SDS011;10677;50.942;4.028;2023-03-14T03:07:52;10.68;;;2.47;;
21036;SDS011;10677;50.942;4.028;2023-03-14T03:10:17;13.75;;;2.70;;
21036;SDS011;10677;50.942;4.028;2023-03-14T03:12:43;11.35;;;3.13;;
21036;SDS011;10677;50.942;4.028;2023-03-14T03:15:09;13.95;;;2.88;;
21036;SDS011;10677;50.942;4.028;2023-03-14T03:17:35;11.18;;;3.13;;
21036;SDS011;10677;50.942;4.028;2023-03-14T03:20:01;11.68;;;3.03;;
21036;SDS011;10677;50.942;4.028;2023-03-14T03:22:26;11.93;;;2.85;;
21036;SDS011;10677;50.942;4.028;2023-03-14T03:24:52;14.13;;;3.10;;
21036;SDS011;10677;50.942;4.028;2023-03-14T03:27:18;10.50;;;2.80;;
21036;SDS011;10677;50.942;4.028;2023-03-14T03:29:43;13.68;;;3.30;;
21036;SDS011;10677;50.942;4.028;2023-03-14T03:32:09;12.95;;;3.33;;
21036;SDS011;10677;50.942;4.028;2023-03-14T03:34:34;11.35;;;2.40;;
21036;SDS011;10677;50.942;4.028;2023-03-14T03:37:00;13.55;;;3.22;;
21036;SDS011;10677;50.942;4.028;2023-03-14T03:39:28;13.93;;;3.42;;
21036;SDS011;10677;50.942;4.028;2023-03-14T03:41:53;15.98;;;3.70;;
21036;SDS011;10677;50.942;4.028;2023-03-14T03:44:19;10.85;;;3.40;;
21036;SDS011;10677;50.942;4.028;2023-03-14T03:46:45;10.93;;;3.38;;
21036;SDS011;10677;50.942;4.028;2023-03-14T03:49:11;17.38;;;3.45;;
21036;SDS011;10677;50.942;4.028;2023-03-14T03:51:36;14.43;;;3.08;;
21036;SDS011;10677;50.942;4.028;2023-03-14T03:54:02;13.95;;;3.28;;
21036;SDS011;10677;50.942;4.028;2023-03-14T03:56:28;11.70;;;3.20;;
21036;SDS011;10677;50.942;4.028;2023-03-14T03:58:54;10.88;;;3.25;;
21036;SDS011;10677;50.942;4.028;2023-03-14T04:01:20;9.32;;;3.30;;
21036;SDS011;10677;50.942;4.028;2023-03-14T04:03:45;12.30;;;3.70;;
21036;SDS011;10677;50.942;4.028;2023-03-14T04:06:12;13.05;;;3.45;;
21036;SDS011;10677;50.942;4.028;2023-03-14T04:08:38;11.73;;;3.78;;
21036;SDS011;10677;50.942;4.028;2023-03-14T04:11:06;11.95;;;3.30;;
21036;SDS011;10677;50.942;4.028;2023-03-14T04:13:32;12.05;;;3.33;;
21036;SDS011;10677;50.942;4.028;2023-03-14T04:15:59;9.32;;;3.45;;
21036;SDS011;10677;50.942;4.028;2023-03-14T04:18:25;11.98;;;3.45;;
21036;SDS011;10677;50.942;4.028;2023-03-14T04:20:51;11.52;;;3.88;;
21036;SDS011;10677;50.942;4.028;2023-03-14T04:23:21;8.93;;;3.35;;
21036;SDS011;10677;50.942;4.028;2023-03-14T04:25:51;13.48;;;3.17;;
21036;SDS011;10677;50.942;4.028;2023-03-14T04:28:18;12.30;;;3.13;;
21036;SDS011;10677;50.942;4.028;2023-03-14T04:30:44;8.32;;;2.85;;
21036;SDS011;10677;50.942;4.028;2023-03-14T04:33:09;8.05;;;2.47;;
21036;SDS011;10677;50.942;4.028;2023-03-14T04:35:37;9.75;;;2.85;;
21036;SDS011;10677;50.942;4.028;2023-03-14T04:38:03;11.55;;;3.78;;
21036;SDS011;10677;50.942;4.028;2023-03-14T04:40:28;10.32;;;3.58;;
21036;SDS011;10677;50.942;4.028;2023-03-14T04:42:54;9.88;;;2.80;;
21036;SDS011;10677;50.942;4.028;2023-03-14T04:45:20;9.70;;;2.95;;
21036;SDS011;10677;50.942;4.028;2023-03-14T04:47:45;10.68;;;3.35;;
21036;SDS011;10677;50.942;4.028;2023-03-14T04:50:11;9.50;;;3.25;;
21036;SDS011;10677;50.942;4.028;2023-03-14T04:52:37;7.28;;;2.85;;
21036;SDS011;10677;50.942;4.028;2023-03-14T04:55:02;9.93;;;3.10;;
21036;SDS011;10677;50.942;4.028;2023-03-14T04:57:28;9.07;;;3.35;;
21036;SDS011;10677;50.942;4.028;2023-03-14T04:59:54;7.45;;;3.00;;
21036;SDS011;10677;50.942;4.028;2023-03-14T05:02:20;10.50;;;3.80;;
21036;SDS011;10677;50.942;4.028;2023-03-14T05:04:45;10.45;;;4.10;;
21036;SDS011;10677;50.942;4.028;2023-03-14T05:07:11;9.85;;;3.88;;
21036;SDS011;10677;50.942;4.028;2023-03-14T05:09:36;9.88;;;3.50;;
21036;SDS011;10677;50.942;4.028;2023-03-14T05:12:02;9.35;;;3.90;;
21036;SDS011;10677;50.942;4.028;2023-03-14T05:14:28;7.53;;;3.65;;
21036;SDS011;10677;50.942;4.028;2023-03-14T05:16:53;9.73;;;3.80;;
21036;SDS011;10677;50.942;4.028;2023-03-14T05:19:19;8.02;;;3.60;;
21036;SDS011;10677;50.942;4.028;2023-03-14T05:21:46;6.72;;;3.35;;
21036;SDS011;10677;50.942;4.028;2023-03-14T05:24:12;7.88;;;3.40;;
21036;SDS011;10677;50.942;4.028;2023-03-14T05:26:37;6.30;;;3.20;;
21036;SDS011;10677;50.942;4.028;2023-03-14T05:29:03;6.95;;;3.22;;
21036;SDS011;10677;50.942;4.028;2023-03-14T05:31:29;6.88;;;3.30;;
21036;SDS011;10677;50.942;4.028;2023-03-14T05:33:54;6.68;;;3.08;;
21036;SDS011;10677;50.942;4.028;2023-03-14T05:36:20;7.40;;;2.83;;
21036;SDS011;10677;50.942;4.028;2023-03-14T05:38:45;4.78;;;2.60;;
21036;SDS011;10677;50.942;4.028;2023-03-14T05:41:11;5.45;;;2.08;;
21036;SDS011;10677;50.942;4.028;2023-03-14T05:43:37;4.78;;;1.88;;
21036;SDS011;10677;50.942;4.028;2023-03-14T05:46:02;5.32;;;1.90;;
21036;SDS011;10677;50.942;4.028;2023-03-14T05:48:28;6.35;;;2.50;;
21036;SDS011;10677;50.942;4.028;2023-03-14T05:50:55;10.18;;;3.05;;
21036;SDS011;10677;50.942;4.028;2023-03-14T05:53:21;3.92;;;2.42;;
21036;SDS011;10677;50.942;4.028;2023-03-14T05:55:47;5.10;;;2.55;;
21036;SDS011;10677;50.942;4.028;2023-03-14T05:58:15;5.53;;;2.33;;
21036;SDS011;10677;50.942;4.028;2023-03-14T06:00:41;3.80;;;1.92;;
21036;SDS011;10677;50.942;4.028;2023-03-14T06:03:06;5.68;;;2.15;;
21036;SDS011;10677;50.942;4.028;2023-03-14T06:05:32;6.28;;;1.83;;
21036;SDS011;10677;50.942;4.028;2023-03-14T06:07:58;3.90;;;1.90;;
21036;SDS011;10677;50.942;4.028;2023-03-14T06:10:23;5.78;;;2.08;;
21036;SDS011;10677;50.942;4.028;2023-03-14T06:12:49;7.90;;;2.20;;
21036;SDS011;10677;50.942;4.028;2023-03-14T06:15:15;5.53;;;2.22;;
21036;SDS011;10677;50.942;4.028;2023-03-14T06:17:40;6.40;;;2.42;;
21036;SDS011;10677;50.942;4.028;2023-03-14T06:20:06;5.97;;;2.28;;
21036;SDS011;10677;50.942;4.028;2023-03-14T06:22:33;7.53;;;2.05;;
21036;SDS011;10677;50.942;4.028;2023-03-14T06:24:59;6.32;;;2.28;;
21036;SDS011;10677;50.942;4.028;2023-03-14T06:27:25;7.10;;;2.95;;
21036;SDS011;10677;50.942;4.028;2023-03-14T06:29:50;5.13;;;2.90;;
21036;SDS011;10677;50.942;4.028;2023-03-14T06:32:16;5.97;;;3.17;;
21036;SDS011;10677;50.942;4.028;2023-03-14T06:34:43;6.03;;;2.35;;
21036;SDS011;10677;50.942;4.028;2023-03-14T06:37:09;6.45;;;2.60;;
21036;SDS011;10677;50.942;4.028;2023-03-14T06:39:34;6.22;;;2.17;;
21036;SDS011;10677;50.942;4.028;2023-03-14T06:42:00;4.75;;;1.90;;
21036;SDS011;10677;50.942;4.028;2023-03-14T06:44:26;5.13;;;2.30;;
21036;SDS011;10677;50.942;4.028;2023-03-14T06:46:51;10.25;;;2.95;;
21036;SDS011;10677;50.942;4.028;2023-03-14T06:49:17;5.20;;;2.28;;
21036;SDS011;10677;50.942;4.028;2023-03-14T06:51:43;7.25;;;2.83;;
21036;SDS011;10677;50.942;4.028;2023-03-14T06:54:08;5.82;;;2.67;;
21036;SDS011;10677;50.942;4.028;2023-03-14T06:56:34;6.47;;;2.38;;
21036;SDS011;10677;50.942;4.028;2023-03-14T06:58:59;4.63;;;2.65;;
21036;SDS011;10677;50.942;4.028;2023-03-14T07:01:27;8.38;;;2.20;;
21036;SDS011;10677;50.942;4.028;2023-03-14T07:03:54;7.90;;;2.50;;
21036;SDS011;10677;50.942;4.028;2023-03-14T07:06:20;7.03;;;1.92;;
21036;SDS011;10677;50.942;4.028;2023-03-14T07:08:47;6.03;;;2.35;;
21036;SDS011;10677;50.942;4.028;2023-03-14T07:11:14;7.60;;;2.83;;
21036;SDS011;10677;50.942;4.028;2023-03-14T07:13:40;6.63;;;2.80;;
21036;SDS011;10677;50.942;4.028;2023-03-14T07:16:06;7.60;;;3.00;;
21036;SDS011;10677;50.942;4.028;2023-03-14T07:18:33;7.70;;;2.65;;
21036;SDS011;10677;50.942;4.028;2023-03-14T07:20:58;6.55;;;2.97;;
21036;SDS011;10677;50.942;4.028;2023-03-14T07:23:24;9.45;;;3.60;;
21036;SDS011;10677;50.942;4.028;2023-03-14T07:25:50;8.80;;;3.17;;
21036;SDS011;10677;50.942;4.028;2023-03-14T07:28:18;10.57;;;4.03;;
21036;SDS011;10677;50.942;4.028;2023-03-14T07:30:48;9.65;;;4.30;;
21036;SDS011;10677;50.942;4.028;2023-03-14T07:33:14;15.07;;;4.55;;
21036;SDS011;10677;50.942;4.028;2023-03-14T07:35:40;9.63;;;3.92;;
21036;SDS011;10677;50.942;4.028;2023-03-14T07:38:06;11.30;;;4.80;;
21036;SDS011;10677;50.942;4.028;2023-03-14T07:40:32;10.13;;;4.40;;
21036;SDS011;10677;50.942;4.028;2023-03-14T07:42:58;11.15;;;4.50;;
21036;SDS011;10677;50.942;4.028;2023-03-14T07:45:25;12.65;;;4.60;;
21036;SDS011;10677;50.942;4.028;2023-03-14T07:47:51;7.88;;;4.20;;
21036;SDS011;10677;50.942;4.028;2023-03-14T07:50:23;9.68;;;3.90;;
21036;SDS011;10677;50.942;4.028;2023-03-14T07:52:52;16.55;;;4.90;;
21036;SDS011;10677;50.942;4.028;2023-03-14T07:55:18;10.63;;;5.07;;
21036;SDS011;10677;50.942;4.028;2023-03-14T07:57:44;14.77;;;4.32;;
21036;SDS011;10677;50.942;4.028;2023-03-14T08:00:10;8.85;;;4.13;;
21036;SDS011;10677;50.942;4.028;2023-03-14T08:02:36;12.23;;;4.60;;
21036;SDS011;10677;50.942;4.028;2023-03-14T08:05:05;9.52;;;3.88;;
21036;SDS011;10677;50.942;4.028;2023-03-14T08:07:31;4.82;;;2.70;;
21036;SDS011;10677;50.942;4.028;2023-03-14T08:09:58;5.13;;;2.30;;
21036;SDS011;10677;50.942;4.028;2023-03-14T08:12:24;6.50;;;2.50;;
21036;SDS011;10677;50.942;4.028;2023-03-14T08:14:50;7.55;;;2.40;;
21036;SDS011;10677;50.942;4.028;2023-03-14T08:17:16;4.45;;;2.13;;
21036;SDS011;10677;50.942;4.028;2023-03-14T08:19:41;7.90;;;2.83;;
21036;SDS011;10677;50.942;4.028;2023-03-14T08:22:07;5.93;;;2.30;;
21036;SDS011;10677;50.942;4.028;2023-03-14T08:24:33;5.47;;;2.20;;
21036;SDS011;10677;50.942;4.028;2023-03-14T08:26:59;6.85;;;2.47;;
21036;SDS011;10677;50.942;4.028;2023-03-14T08:29:25;9.98;;;3.00;;
21036;SDS011;10677;50.942;4.028;2023-03-14T08:31:51;6.43;;;2.72;;
21036;SDS011;10677;50.942;4.028;2023-03-14T08:34:16;9.20;;;3.10;;
21036;SDS011;10677;50.942;4.028;2023-03-14T08:36:42;5.80;;;2.63;;
21036;SDS011;10677;50.942;4.028;2023-03-14T08:39:08;7.20;;;3.28;;
21036;SDS011;10677;50.942;4.028;2023-03-14T08:41:34;6.60;;;3.35;;
21036;SDS011;10677;50.942;4.028;2023-03-14T08:44:09;5.28;;;2.90;;
21036;SDS011;10677;50.942;4.028;2023-03-14T08:46:36;6.93;;;3.13;;
21036;SDS011;10677;50.942;4.028;2023-03-14T08:49:02;6.05;;;3.15;;
21036;SDS011;10677;50.942;4.028;2023-03-14T08:51:28;11.35;;;3.65;;
21036;SDS011;10677;50.942;4.028;2023-03-14T08:53:54;7.80;;;3.42;;
21036;SDS011;10677;50.942;4.028;2023-03-14T08:56:22;7.95;;;3.22;;
21036;SDS011;10677;50.942;4.028;2023-03-14T08:58:48;10.80;;;3.60;;
21036;SDS011;10677;50.942;4.028;2023-03-14T09:01:14;10.93;;;2.97;;
21036;SDS011;10677;50.942;4.028;2023-03-14T09:03:39;9.43;;;2.72;;
21036;SDS011;10677;50.942;4.028;2023-03-14T09:06:07;11.80;;;3.20;;
21036;SDS011;10677;50.942;4.028;2023-03-14T09:08:35;16.00;;;2.75;;
21036;SDS011;10677;50.942;4.028;2023-03-14T09:11:01;14.23;;;2.72;;
21036;SDS011;10677;50.942;4.028;2023-03-14T09:26:16;11.05;;;1.83;;
21036;SDS011;10677;50.942;4.028;2023-03-14T09:28:42;8.82;;;2.85;;
21036;SDS011;10677;50.942;4.028;2023-03-14T09:31:09;11.82;;;2.90;;
21036;SDS011;10677;50.942;4.028;2023-03-14T09:33:36;9.70;;;2.25;;
21036;SDS011;10677;50.942;4.028;2023-03-14T09:36:06;5.80;;;2.47;;
21036;SDS011;10677;50.942;4.028;2023-03-14T09:38:33;12.50;;;3.10;;
21036;SDS011;10677;50.942;4.028;2023-03-14T09:41:00;9.35;;;2.45;;
21036;SDS011;10677;50.942;4.028;2023-03-14T09:43:31;10.45;;;2.58;;
21036;SDS011;10677;50.942;4.028;2023-03-14T09:46:00;15.52;;;3.05;;
21036;SDS011;10677;50.942;4.028;2023-03-14T09:48:29;13.65;;;2.38;;
21036;SDS011;10677;50.942;4.028;2023-03-14T09:50:57;6.43;;;2.45;;
21036;SDS011;10677;50.942;4.028;2023-03-14T09:55:55;8.25;;;1.58;;
21036;SDS011;10677;50.942;4.028;2023-03-14T09:58:23;7.85;;;1.95;;
21036;SDS011;10677;50.942;4.028;2023-03-14T10:00:49;8.10;;;1.70;;
21036;SDS011;10677;50.942;4.028;2023-03-14T10:05:47;9.63;;;2.08;;
21036;SDS011;10677;50.942;4.028;2023-03-14T10:08:13;9.15;;;2.13;;
21036;SDS011;10677;50.942;4.028;2023-03-14T10:10:39;7.43;;;2.22;;
21036;SDS011;10677;50.942;4.028;2023-03-14T10:15:40;7.45;;;2.08;;
21036;SDS011;10677;50.942;4.028;2023-03-14T10:18:12;8.38;;;1.73;;
21036;SDS011;10677;50.942;4.028;2023-03-14T10:20:41;9.07;;;1.80;;
21036;SDS011;10677;50.942;4.028;2023-03-14T10:26:23;10.98;;;2.40;;
21036;SDS011;10677;50.942;4.028;2023-03-14T10:28:44;8.13;;;1.80;;
21036;SDS011;10677;50.942;4.028;2023-03-14T10:31:13;8.35;;;1.98;;
21036;SDS011;10677;50.942;4.028;2023-03-14T10:33:43;7.53;;;1.75;;
21036;SDS011;10677;50.942;4.028;2023-03-14T10:36:24;7.50;;;1.60;;
21036;SDS011;10677;50.942;4.028;2023-03-14T10:38:57;12.02;;;1.92;;
21036;SDS011;10677;50.942;4.028;2023-03-14T10:41:52;4.95;;;1.92;;
21036;SDS011;10677;50.942;4.028;2023-03-14T10:44:27;11.30;;;2.22;;
21036;SDS011;10677;50.942;4.028;2023-03-14T10:47:01;6.60;;;1.42;;
21036;SDS011;10677;50.942;4.028;2023-03-14T10:52:22;4.35;;;1.42;;
21036;SDS011;10677;50.942;4.028;2023-03-14T10:55:09;3.33;;;1.00;;
21036;SDS011;10677;50.942;4.028;2023-03-14T10:57:39;4.28;;;1.02;;
21036;SDS011;10677;50.942;4.028;2023-03-14T11:00:16;7.25;;;1.58;;
21036;SDS011;10677;50.942;4.028;2023-03-14T11:05:43;3.88;;;0.95;;
21036;SDS011;10677;50.942;4.028;2023-03-14T11:08:34;5.75;;;0.85;;
21036;SDS011;10677;50.942;4.028;2023-03-14T11:19:11;5.78;;;1.20;;
21036;SDS011;10677;50.942;4.028;2023-03-14T11:29:55;6.13;;;1.15;;
21036;SDS011;10677;50.942;4.028;2023-03-14T11:32:43;3.70;;;1.02;;
21036;SDS011;10677;50.942;4.028;2023-03-14T11:35:24;3.42;;;0.90;;
21036;SDS011;10677;50.942;4.028;2023-03-14T11:40:44;3.58;;;1.30;;
21036;SDS011;10677;50.942;4.028;2023-03-14T11:46:06;9.45;;;1.27;;
21036;SDS011;10677;50.942;4.028;2023-03-14T11:51:38;6.57;;;1.30;;
21036;SDS011;10677;50.942;4.028;2023-03-14T11:54:17;6.00;;;1.50;;
21036;SDS011;10677;50.942;4.028;2023-03-14T11:56:53;4.43;;;1.30;;
21036;SDS011;10677;50.942;4.028;2023-03-14T11:59:45;6.07;;;1.83;;
21036;SDS011;10677;50.942;4.028;2023-03-14T12:08:18;8.23;;;2.20;;
21036;SDS011;10677;50.942;4.028;2023-03-14T12:10:54;5.32;;;1.55;;
21036;SDS011;10677;50.942;4.028;2023-03-14T12:13:27;6.68;;;2.10;;
21036;SDS011;10677;50.942;4.028;2023-03-14T12:15:57;8.90;;;1.83;;
21036;SDS011;10677;50.942;4.028;2023-03-14T12:18:31;7.32;;;2.10;;
21036;SDS011;10677;50.942;4.028;2023-03-14T12:21:05;14.30;;;2.08;;
21036;SDS011;10677;50.942;4.028;2023-03-14T12:23:43;11.10;;;2.50;;
21036;SDS011;10677;50.942;4.028;2023-03-14T12:26:19;13.50;;;2.58;;
21036;SDS011;10677;50.942;4.028;2023-03-14T12:41:53;10.43;;;2.70;;
21036;SDS011;10677;50.942;4.028;2023-03-14T12:46:56;15.93;;;2.40;;
21036;SDS011;10677;50.942;4.028;2023-03-14T12:49:39;12.88;;;2.95;;
21036;SDS011;10677;50.942;4.028;2023-03-14T12:52:11;12.85;;;2.10;;
21036;SDS011;10677;50.942;4.028;2023-03-14T12:54:44;14.55;;;2.95;;
21036;SDS011;10677;50.942;4.028;2023-03-14T12:59:52;23.08;;;2.28;;
21036;SDS011;10677;50.942;4.028;2023-03-14T13:02:28;12.43;;;2.97;;
21036;SDS011;10677;50.942;4.028;2023-03-14T13:05:02;17.23;;;3.30;;
21036;SDS011;10677;50.942;4.028;2023-03-14T13:15:44;25.38;;;3.20;;
21036;SDS011;10677;50.942;4.028;2023-03-14T13:18:13;18.95;;;3.17;;
21036;SDS011;10677;50.942;4.028;2023-03-14T13:23:27;18.30;;;2.38;;
21036;SDS011;10677;50.942;4.028;2023-03-14T13:25:54;21.30;;;3.50;;
21036;SDS011;10677;50.942;4.028;2023-03-14T13:28:23;17.25;;;1.83;;
21036;SDS011;10677;50.942;4.028;2023-03-14T13:30:54;12.80;;;1.88;;
21036;SDS011;10677;50.942;4.028;2023-03-14T13:33:22;16.80;;;1.92;;
21036;SDS011;10677;50.942;4.028;2023-03-14T13:38:24;16.80;;;2.15;;
21036;SDS011;10677;50.942;4.028;2023-03-14T13:40:53;16.05;;;1.90;;
21036;SDS011;10677;50.942;4.028;2023-03-14T13:46:05;18.08;;;2.20;;
21036;SDS011;10677;50.942;4.028;2023-03-14T13:48:44;16.00;;;2.47;;
21036;SDS011;10677;50.942;4.028;2023-03-14T13:51:20;21.67;;;2.30;;
21036;SDS011;10677;50.942;4.028;2023-03-14T13:56:41;13.63;;;2.83;;
21036;SDS011;10677;50.942;4.028;2023-03-14T14:01:53;10.30;;;1.85;;
21036;SDS011;10677;50.942;4.028;2023-03-14T14:04:21;14.25;;;2.30;;
21036;SDS011;10677;50.942;4.028;2023-03-14T14:06:52;14.23;;;1.75;;
21036;SDS011;10677;50.942;4.028;2023-03-14T14:09:21;17.33;;;1.77;;
21036;SDS011;10677;50.942;4.028;2023-03-14T14:11:51;9.23;;;1.30;;
21036;SDS011;10677;50.942;4.028;2023-03-14T14:14:20;10.82;;;2.10;;
21036;SDS011;10677;50.942;4.028;2023-03-14T14:16:48;13.32;;;1.80;;
21036;SDS011;10677;50.942;4.028;2023-03-14T14:19:16;8.88;;;1.45;;
21036;SDS011;10677;50.942;4.028;2023-03-14T14:21:45;6.72;;;1.20;;
21036;SDS011;10677;50.942;4.028;2023-03-14T14:24:14;8.50;;;1.15;;
21036;SDS011;10677;50.942;4.028;2023-03-14T14:26:41;6.60;;;0.93;;
21036;SDS011;10677;50.942;4.028;2023-03-14T14:29:32;6.47;;;0.80;;
21036;SDS011;10677;50.942;4.028;2023-03-14T14:32:00;7.43;;;1.05;;
21036;SDS011;10677;50.942;4.028;2023-03-14T14:34:41;5.20;;;0.93;;
21036;SDS011;10677;50.942;4.028;2023-03-14T14:37:24;4.75;;;0.68;;
21036;SDS011;10677;50.942;4.028;2023-03-14T14:39:52;3.85;;;1.20;;
21036;SDS011;10677;50.942;4.028;2023-03-14T14:42:24;7.45;;;0.90;;
21036;SDS011;10677;50.942;4.028;2023-03-14T14:44:52;4.03;;;0.75;;
21036;SDS011;10677;50.942;4.028;2023-03-14T14:47:20;4.32;;;0.60;;
21036;SDS011;10677;50.942;4.028;2023-03-14T14:49:48;4.18;;;0.82;;
21036;SDS011;10677;50.942;4.028;2023-03-14T14:52:20;3.22;;;0.60;;
21036;SDS011;10677;50.942;4.028;2023-03-14T14:54:51;4.85;;;0.68;;
21036;SDS011;10677;50.942;4.028;2023-03-14T14:57:23;6.03;;;0.88;;
21036;SDS011;10677;50.942;4.028;2023-03-14T14:59:56;5.50;;;0.77;;
21036;SDS011;10677;50.942;4.028;2023-03-14T15:02:30;2.97;;;1.10;;
21036;SDS011;10677;50.942;4.028;2023-03-14T15:07:41;5.28;;;0.80;;
21036;SDS011;10677;50.942;4.028;2023-03-14T15:10:10;3.42;;;0.77;;
21036;SDS011;10677;50.942;4.028;2023-03-14T15:12:43;5.00;;;0.80;;
21036;SDS011;10677;50.942;4.028;2023-03-14T15:20:20;5.05;;;0.73;;
21036;SDS011;10677;50.942;4.028;2023-03-14T15:22:48;4.15;;;0.98;;
21036;SDS011;10677;50.942;4.028;2023-03-14T15:25:14;5.10;;;0.90;;
21036;SDS011;10677;50.942;4.028;2023-03-14T15:27:40;7.10;;;1.63;;
21036;SDS011;10677;50.942;4.028;2023-03-14T15:30:11;7.40;;;1.10;;
21036;SDS011;10677;50.942;4.028;2023-03-14T15:32:38;7.75;;;1.00;;
21036;SDS011;10677;50.942;4.028;2023-03-14T15:35:05;4.38;;;1.20;;
21036;SDS011;10677;50.942;4.028;2023-03-14T15:37:32;4.28;;;0.70;;
21036;SDS011;10677;50.942;4.028;2023-03-14T15:39:58;6.53;;;1.23;;
21036;SDS011;10677;50.942;4.028;2023-03-14T15:42:24;2.75;;;0.73;;
21036;SDS011;10677;50.942;4.028;2023-03-14T15:44:49;6.28;;;1.30;;
21036;SDS011;10677;50.942;4.028;2023-03-14T15:47:15;4.82;;;1.38;;
21036;SDS011;10677;50.942;4.028;2023-03-14T15:49:41;9.05;;;1.23;;
21036;SDS011;10677;50.942;4.028;2023-03-14T15:52:07;9.38;;;1.25;;
21036;SDS011;10677;50.942;4.028;2023-03-14T15:54:33;8.23;;;1.50;;
21036;SDS011;10677;50.942;4.028;2023-03-14T15:56:59;4.93;;;1.10;;
21036;SDS011;10677;50.942;4.028;2023-03-14T15:59:25;8.38;;;1.40;;
21036;SDS011;10677;50.942;4.028;2023-03-14T16:01:51;12.60;;;1.60;;
21036;SDS011;10677;50.942;4.028;2023-03-14T16:04:17;10.43;;;1.52;;
21036;SDS011;10677;50.942;4.028;2023-03-14T16:06:43;10.70;;;2.78;;
21036;SDS011;10677;50.942;4.028;2023-03-14T16:09:10;12.77;;;1.73;;
21036;SDS011;10677;50.942;4.028;2023-03-14T16:11:39;10.90;;;1.67;;
21036;SDS011;10677;50.942;4.028;2023-03-14T16:14:05;14.63;;;2.22;;
21036;SDS011;10677;50.942;4.028;2023-03-14T16:16:31;9.43;;;2.20;;
21036;SDS011;10677;50.942;4.028;2023-03-14T16:18:57;11.68;;;2.25;;
21036;SDS011;10677;50.942;4.028;2023-03-14T16:24:22;13.73;;;2.25;;
21036;SDS011;10677;50.942;4.028;2023-03-14T16:26:48;10.93;;;2.38;;
21036;SDS011;10677;50.942;4.028;2023-03-14T16:29:14;12.70;;;2.30;;
21036;SDS011;10677;50.942;4.028;2023-03-14T16:31:41;11.82;;;1.88;;
21036;SDS011;10677;50.942;4.028;2023-03-14T16:34:07;17.38;;;2.00;;
21036;SDS011;10677;50.942;4.028;2023-03-14T16:36:34;14.60;;;1.75;;
21036;SDS011;10677;50.942;4.028;2023-03-14T16:38:59;11.85;;;2.70;;
21036;SDS011;10677;50.942;4.028;2023-03-14T16:41:25;12.35;;;1.73;;
21036;SDS011;10677;50.942;4.028;2023-03-14T16:43:55;11.00;;;1.98;;
21036;SDS011;10677;50.942;4.028;2023-03-14T16:46:25;13.10;;;2.30;;
21036;SDS011;10677;50.942;4.028;2023-03-14T16:48:52;12.93;;;1.83;;
21036;SDS011;10677;50.942;4.028;2023-03-14T16:51:18;10.93;;;1.38;;